sensor_id;sensor_type;location;lat;lon;timestamp;P1;durP1;ratioP1;P2;durP2;ratioP2
64619;SDS011;51029;51.058;13.826;2023-04-01T00:00:58;3.63;;;1.00;;
64619;SDS011;51029;51.058;13.826;2023-04-01T00:03:24;2.70;;;1.00;;
64619;SDS011;51029;51.058;13.826;2023-04-01T00:05:55;3.13;;;1.00;;
64619;SDS011;51029;51.058;13.826;2023-04-01T00:08:21;3.00;;;1.30;;
64619;SDS011;51029;51.058;13.826;2023-04-01T00:10:47;3.67;;;1.23;;
64619;SDS011;51029;51.058;13.826;2023-04-01T00:13:13;2.63;;;1.13;;
64619;SDS011;51029;51.058;13.826;2023-04-01T00:15:38;3.73;;;1.17;;
64619;SDS011;51029;51.058;13.826;2023-04-01T00:18:04;2.07;;;1.10;;
64619;SDS011;51029;51.058;13.826;2023-04-01T00:20:30;1.73;;;1.00;;
64619;SDS011;51029;51.058;13.826;2023-04-01T00:22:55;2.33;;;1.00;;
64619;SDS011;51029;51.058;13.826;2023-04-01T00:25:21;3.13;;;1.20;;
64619;SDS011;51029;51.058;13.826;2023-04-01T00:27:47;2.73;;;1.13;;
64619;SDS011;51029;51.058;13.826;2023-04-01T00:30:14;2.97;;;1.10;;
64619;SDS011;51029;51.058;13.826;2023-04-01T00:32:40;2.23;;;1.27;;
64619;SDS011;51029;51.058;13.826;2023-04-01T00:35:06;2.73;;;1.00;;
64619;SDS011;51029;51.058;13.826;2023-04-01T00:37:34;3.07;;;1.33;;
64619;SDS011;51029;51.058;13.826;2023-04-01T00:40:01;2.10;;;1.17;;
64619;SDS011;51029;51.058;13.826;2023-04-01T00:42:29;2.97;;;1.10;;
64619;SDS011;51029;51.058;13.826;2023-04-01T00:44:54;3.40;;;1.20;;
64619;SDS011;51029;51.058;13.826;2023-04-01T00:47:20;3.43;;;1.13;;
64619;SDS011;51029;51.058;13.826;2023-04-01T00:49:49;2.80;;;1.30;;
64619;SDS011;51029;51.058;13.826;2023-04-01T00:52:18;3.27;;;1.10;;
64619;SDS011;51029;51.058;13.826;2023-04-01T00:54:47;2.83;;;1.13;;
64619;SDS011;51029;51.058;13.826;2023-04-01T00:57:20;1.80;;;1.00;;
64619;SDS011;51029;51.058;13.826;2023-04-01T00:59:50;2.70;;;1.10;;
64619;SDS011;51029;51.058;13.826;2023-04-01T01:02:18;3.20;;;1.20;;
64619;SDS011;51029;51.058;13.826;2023-04-01T01:04:44;2.47;;;1.20;;
64619;SDS011;51029;51.058;13.826;2023-04-01T01:10:15;3.10;;;1.30;;
64619;SDS011;51029;51.058;13.826;2023-04-01T01:12:45;2.87;;;1.20;;
64619;SDS011;51029;51.058;13.826;2023-04-01T01:15:32;2.20;;;1.20;;
64619;SDS011;51029;51.058;13.826;2023-04-01T01:18:18;3.13;;;1.20;;
64619;SDS011;51029;51.058;13.826;2023-04-01T20:58:01;4.23;;;3.83;;
64619;SDS011;51029;51.058;13.826;2023-04-01T21:03:34;5.27;;;4.17;;
64619;SDS011;51029;51.058;13.826;2023-04-01T21:17:04;4.90;;;4.40;;
64619;SDS011;51029;51.058;13.826;2023-04-01T21:22:49;5.03;;;3.90;;
64619;SDS011;51029;51.058;13.826;2023-04-01T21:25:27;5.87;;;4.67;;
64619;SDS011;51029;51.058;13.826;2023-04-01T21:28:09;5.63;;;5.13;;
64619;SDS011;51029;51.058;13.826;2023-04-01T21:33:45;6.33;;;4.97;;
64619;SDS011;51029;51.058;13.826;2023-04-01T21:39:12;5.17;;;4.70;;
64619;SDS011;51029;51.058;13.826;2023-04-01T21:59:24;3.40;;;3.10;;
64619;SDS011;51029;51.058;13.826;2023-04-01T22:04:48;1.73;;;1.63;;
64619;SDS011;51029;51.058;13.826;2023-04-01T22:07:56;2.73;;;2.00;;
64619;SDS011;51029;51.058;13.826;2023-04-01T22:16:20;3.40;;;2.50;;
64619;SDS011;51029;51.058;13.826;2023-04-01T22:19:06;5.03;;;4.53;;
64619;SDS011;51029;51.058;13.826;2023-04-01T22:21:58;2.63;;;2.40;;
64619;SDS011;51029;51.058;13.826;2023-04-01T22:27:07;4.10;;;3.20;;
64619;SDS011;51029;51.058;13.826;2023-04-01T22:29:41;3.63;;;3.17;;
64619;SDS011;51029;51.058;13.826;2023-04-01T22:32:15;3.97;;;3.47;;
64619;SDS011;51029;51.058;13.826;2023-04-01T22:34:50;4.67;;;3.60;;
64619;SDS011;51029;51.058;13.826;2023-04-01T22:37:23;3.67;;;2.80;;
64619;SDS011;51029;51.058;13.826;2023-04-01T22:40:08;4.50;;;2.87;;
64619;SDS011;51029;51.058;13.826;2023-04-01T22:45:40;13.80;;;11.63;;
64619;SDS011;51029;51.058;13.826;2023-04-01T22:50:47;3.80;;;3.47;;
64619;SDS011;51029;51.058;13.826;2023-04-01T22:56:27;3.90;;;3.60;;
64619;SDS011;51029;51.058;13.826;2023-04-01T22:59:06;4.80;;;4.30;;
64619;SDS011;51029;51.058;13.826;2023-04-01T23:01:48;4.73;;;4.30;;
64619;SDS011;51029;51.058;13.826;2023-04-01T23:04:24;5.13;;;4.63;;
64619;SDS011;51029;51.058;13.826;2023-04-01T23:06:57;5.23;;;4.73;;
64619;SDS011;51029;51.058;13.826;2023-04-01T23:09:26;6.17;;;5.57;;
64619;SDS011;51029;51.058;13.826;2023-04-01T23:16:47;6.23;;;5.20;;
64619;SDS011;51029;51.058;13.826;2023-04-01T23:25:13;6.73;;;5.43;;
64619;SDS011;51029;51.058;13.826;2023-04-01T23:27:47;5.67;;;5.07;;
64619;SDS011;51029;51.058;13.826;2023-04-01T23:33:10;6.40;;;5.80;;
64619;SDS011;51029;51.058;13.826;2023-04-01T23:35:45;5.70;;;5.20;;
64619;SDS011;51029;51.058;13.826;2023-04-01T23:38:13;5.67;;;5.17;;
64619;SDS011;51029;51.058;13.826;2023-04-01T23:40:39;5.90;;;5.30;;
64619;SDS011;51029;51.058;13.826;2023-04-01T23:43:12;6.20;;;5.63;;
64619;SDS011;51029;51.058;13.826;2023-04-01T23:45:49;6.33;;;5.07;;
64619;SDS011;51029;51.058;13.826;2023-04-01T23:48:15;6.23;;;5.63;;
64619;SDS011;51029;51.058;13.826;2023-04-01T23:50:44;5.50;;;5.00;;
64619;SDS011;51029;51.058;13.826;2023-04-01T23:53:16;5.50;;;5.00;;
64619;SDS011;51029;51.058;13.826;2023-04-01T23:55:44;5.80;;;5.30;;
64619;SDS011;51029;51.058;13.826;2023-04-01T23:58:16;5.47;;;4.97;;
